sensor_id;sensor_type;location;lat;lon;timestamp;P1;durP1;ratioP1;P2;durP2;ratioP2
32393;SDS011;18853;45.426;9.206;2023-03-13T00:03:49;17.52;;;9.07;;
32393;SDS011;18853;45.426;9.206;2023-03-13T00:06:15;14.18;;;8.50;;
32393;SDS011;18853;45.426;9.206;2023-03-13T00:08:41;13.30;;;7.97;;
32393;SDS011;18853;45.426;9.206;2023-03-13T00:11:09;17.17;;;8.63;;
32393;SDS011;18853;45.426;9.206;2023-03-13T00:13:35;15.32;;;7.80;;
32393;SDS011;18853;45.426;9.206;2023-03-13T00:16:06;13.65;;;7.22;;
32393;SDS011;18853;45.426;9.206;2023-03-13T00:18:36;11.15;;;8.00;;
32393;SDS011;18853;45.426;9.206;2023-03-13T00:21:03;19.70;;;7.70;;
32393;SDS011;18853;45.426;9.206;2023-03-13T00:23:33;12.90;;;7.93;;
32393;SDS011;18853;45.426;9.206;2023-03-13T00:26:01;14.95;;;8.00;;
32393;SDS011;18853;45.426;9.206;2023-03-13T00:28:30;12.27;;;7.40;;
32393;SDS011;18853;45.426;9.206;2023-03-13T00:33:41;15.32;;;7.65;;
32393;SDS011;18853;45.426;9.206;2023-03-13T00:36:12;13.85;;;7.13;;
32393;SDS011;18853;45.426;9.206;2023-03-13T00:38:49;10.60;;;6.95;;
32393;SDS011;18853;45.426;9.206;2023-03-13T00:41:22;12.75;;;6.68;;
32393;SDS011;18853;45.426;9.206;2023-03-13T00:43:50;11.68;;;7.35;;
32393;SDS011;18853;45.426;9.206;2023-03-13T00:46:17;12.60;;;7.40;;
32393;SDS011;18853;45.426;9.206;2023-03-13T00:48:44;15.35;;;7.70;;
32393;SDS011;18853;45.426;9.206;2023-03-13T00:51:11;11.85;;;7.25;;
32393;SDS011;18853;45.426;9.206;2023-03-13T00:53:37;13.07;;;7.00;;
32393;SDS011;18853;45.426;9.206;2023-03-13T00:56:04;14.65;;;6.95;;
32393;SDS011;18853;45.426;9.206;2023-03-13T00:58:32;15.35;;;7.05;;
32393;SDS011;18853;45.426;9.206;2023-03-13T01:01:09;11.90;;;6.65;;
32393;SDS011;18853;45.426;9.206;2023-03-13T01:06:03;11.73;;;6.97;;
32393;SDS011;18853;45.426;9.206;2023-03-13T01:08:31;14.45;;;6.57;;
32393;SDS011;18853;45.426;9.206;2023-03-13T01:11:01;15.55;;;6.65;;
32393;SDS011;18853;45.426;9.206;2023-03-13T01:13:30;11.55;;;6.18;;
32393;SDS011;18853;45.426;9.206;2023-03-13T01:16:06;11.38;;;5.60;;
32393;SDS011;18853;45.426;9.206;2023-03-13T01:18:38;12.57;;;6.50;;
32393;SDS011;18853;45.426;9.206;2023-03-13T01:21:05;9.50;;;5.90;;
32393;SDS011;18853;45.426;9.206;2023-03-13T01:23:31;10.43;;;5.45;;
32393;SDS011;18853;45.426;9.206;2023-03-13T01:25:57;12.25;;;5.70;;
32393;SDS011;18853;45.426;9.206;2023-03-13T01:28:23;11.50;;;5.75;;
32393;SDS011;18853;45.426;9.206;2023-03-13T01:30:49;11.23;;;5.88;;
32393;SDS011;18853;45.426;9.206;2023-03-13T01:33:15;14.18;;;5.72;;
32393;SDS011;18853;45.426;9.206;2023-03-13T01:35:42;8.65;;;4.97;;
32393;SDS011;18853;45.426;9.206;2023-03-13T01:38:07;10.13;;;4.70;;
32393;SDS011;18853;45.426;9.206;2023-03-13T01:40:43;10.68;;;5.05;;
32393;SDS011;18853;45.426;9.206;2023-03-13T01:43:20;7.97;;;4.40;;
32393;SDS011;18853;45.426;9.206;2023-03-13T01:51:01;11.07;;;4.65;;
32393;SDS011;18853;45.426;9.206;2023-03-13T01:53:32;9.80;;;4.65;;
32393;SDS011;18853;45.426;9.206;2023-03-13T01:55:59;11.07;;;4.50;;
32393;SDS011;18853;45.426;9.206;2023-03-13T01:58:28;9.55;;;4.22;;
32393;SDS011;18853;45.426;9.206;2023-03-13T02:00:55;12.00;;;4.60;;
32393;SDS011;18853;45.426;9.206;2023-03-13T02:03:21;8.68;;;4.40;;
32393;SDS011;18853;45.426;9.206;2023-03-13T02:05:48;10.25;;;4.70;;
32393;SDS011;18853;45.426;9.206;2023-03-13T02:10:52;11.13;;;4.57;;
32393;SDS011;18853;45.426;9.206;2023-03-13T02:13:22;10.93;;;4.60;;
32393;SDS011;18853;45.426;9.206;2023-03-13T02:15:49;12.27;;;4.80;;
32393;SDS011;18853;45.426;9.206;2023-03-13T02:18:15;10.77;;;5.30;;
32393;SDS011;18853;45.426;9.206;2023-03-13T02:20:41;12.05;;;4.78;;
32393;SDS011;18853;45.426;9.206;2023-03-13T02:26:17;8.93;;;4.80;;
32393;SDS011;18853;45.426;9.206;2023-03-13T02:28:43;9.93;;;5.25;;
32393;SDS011;18853;45.426;9.206;2023-03-13T02:31:09;12.38;;;5.57;;
32393;SDS011;18853;45.426;9.206;2023-03-13T02:33:38;9.98;;;5.03;;
32393;SDS011;18853;45.426;9.206;2023-03-13T02:36:06;13.15;;;5.47;;
32393;SDS011;18853;45.426;9.206;2023-03-13T02:38:45;11.27;;;5.32;;
32393;SDS011;18853;45.426;9.206;2023-03-13T02:41:23;10.65;;;5.03;;
32393;SDS011;18853;45.426;9.206;2023-03-13T02:43:50;9.48;;;4.78;;
32393;SDS011;18853;45.426;9.206;2023-03-13T02:46:17;11.77;;;5.07;;
32393;SDS011;18853;45.426;9.206;2023-03-13T02:48:45;9.18;;;4.80;;
32393;SDS011;18853;45.426;9.206;2023-03-13T02:51:33;9.23;;;5.03;;
32393;SDS011;18853;45.426;9.206;2023-03-13T02:54:08;8.43;;;5.13;;
32393;SDS011;18853;45.426;9.206;2023-03-13T02:56:37;9.50;;;4.95;;
32393;SDS011;18853;45.426;9.206;2023-03-13T02:59:05;13.13;;;5.00;;
32393;SDS011;18853;45.426;9.206;2023-03-13T03:01:31;9.30;;;4.40;;
32393;SDS011;18853;45.426;9.206;2023-03-13T03:03:57;10.57;;;4.93;;
32393;SDS011;18853;45.426;9.206;2023-03-13T03:06:23;10.20;;;4.72;;
32393;SDS011;18853;45.426;9.206;2023-03-13T03:08:49;10.82;;;4.43;;
32393;SDS011;18853;45.426;9.206;2023-03-13T03:11:15;9.77;;;5.13;;
32393;SDS011;18853;45.426;9.206;2023-03-13T03:13:41;9.05;;;4.50;;
32393;SDS011;18853;45.426;9.206;2023-03-13T03:16:10;8.88;;;4.32;;
32393;SDS011;18853;45.426;9.206;2023-03-13T03:18:39;9.60;;;5.10;;
32393;SDS011;18853;45.426;9.206;2023-03-13T03:21:05;8.63;;;4.80;;
32393;SDS011;18853;45.426;9.206;2023-03-13T03:23:34;11.68;;;4.70;;
32393;SDS011;18853;45.426;9.206;2023-03-13T03:26:01;12.98;;;4.63;;
32393;SDS011;18853;45.426;9.206;2023-03-13T03:28:28;11.55;;;4.18;;
32393;SDS011;18853;45.426;9.206;2023-03-13T03:30:54;11.15;;;5.35;;
32393;SDS011;18853;45.426;9.206;2023-03-13T03:33:20;10.45;;;4.55;;
32393;SDS011;18853;45.426;9.206;2023-03-13T03:35:47;12.18;;;5.22;;
32393;SDS011;18853;45.426;9.206;2023-03-13T03:38:12;11.40;;;4.70;;
32393;SDS011;18853;45.426;9.206;2023-03-13T03:40:38;8.85;;;4.72;;
32393;SDS011;18853;45.426;9.206;2023-03-13T03:43:03;9.18;;;4.50;;
32393;SDS011;18853;45.426;9.206;2023-03-13T03:45:29;7.93;;;4.32;;
32393;SDS011;18853;45.426;9.206;2023-03-13T03:47:55;8.45;;;4.20;;
32393;SDS011;18853;45.426;9.206;2023-03-13T03:50:23;10.32;;;4.70;;
32393;SDS011;18853;45.426;9.206;2023-03-13T03:52:50;12.73;;;4.90;;
32393;SDS011;18853;45.426;9.206;2023-03-13T03:55:15;9.48;;;4.22;;
32393;SDS011;18853;45.426;9.206;2023-03-13T03:57:41;14.15;;;4.68;;
32393;SDS011;18853;45.426;9.206;2023-03-13T04:00:07;10.63;;;4.60;;
32393;SDS011;18853;45.426;9.206;2023-03-13T04:02:35;11.85;;;4.80;;
32393;SDS011;18853;45.426;9.206;2023-03-13T04:05:01;11.40;;;4.40;;
32393;SDS011;18853;45.426;9.206;2023-03-13T04:07:28;7.03;;;4.28;;
32393;SDS011;18853;45.426;9.206;2023-03-13T04:09:54;10.75;;;4.75;;
32393;SDS011;18853;45.426;9.206;2023-03-13T04:12:19;9.30;;;4.22;;
32393;SDS011;18853;45.426;9.206;2023-03-13T04:14:45;8.45;;;4.35;;
32393;SDS011;18853;45.426;9.206;2023-03-13T04:17:10;10.38;;;4.72;;
32393;SDS011;18853;45.426;9.206;2023-03-13T04:19:36;10.25;;;4.57;;
32393;SDS011;18853;45.426;9.206;2023-03-13T04:22:02;13.75;;;4.55;;
32393;SDS011;18853;45.426;9.206;2023-03-13T04:24:27;8.63;;;4.78;;
32393;SDS011;18853;45.426;9.206;2023-03-13T04:26:53;8.90;;;4.60;;
32393;SDS011;18853;45.426;9.206;2023-03-13T04:29:19;9.07;;;4.80;;
32393;SDS011;18853;45.426;9.206;2023-03-13T04:31:44;9.30;;;4.40;;
32393;SDS011;18853;45.426;9.206;2023-03-13T04:34:10;7.80;;;4.75;;
32393;SDS011;18853;45.426;9.206;2023-03-13T04:36:35;10.07;;;5.22;;
32393;SDS011;18853;45.426;9.206;2023-03-13T04:39:01;10.35;;;5.00;;
32393;SDS011;18853;45.426;9.206;2023-03-13T04:41:27;11.00;;;5.47;;
32393;SDS011;18853;45.426;9.206;2023-03-13T04:43:53;10.82;;;6.03;;
32393;SDS011;18853;45.426;9.206;2023-03-13T04:46:18;13.63;;;5.95;;
32393;SDS011;18853;45.426;9.206;2023-03-13T04:48:44;12.50;;;5.95;;
32393;SDS011;18853;45.426;9.206;2023-03-13T04:51:10;11.57;;;6.00;;
32393;SDS011;18853;45.426;9.206;2023-03-13T04:53:36;11.65;;;6.55;;
32393;SDS011;18853;45.426;9.206;2023-03-13T04:56:02;13.27;;;6.03;;
32393;SDS011;18853;45.426;9.206;2023-03-13T04:58:28;9.65;;;6.22;;
32393;SDS011;18853;45.426;9.206;2023-03-13T05:00:54;11.63;;;6.53;;
32393;SDS011;18853;45.426;9.206;2023-03-13T05:03:21;10.70;;;6.80;;
32393;SDS011;18853;45.426;9.206;2023-03-13T05:05:47;11.40;;;6.60;;
32393;SDS011;18853;45.426;9.206;2023-03-13T05:08:12;12.65;;;6.70;;
32393;SDS011;18853;45.426;9.206;2023-03-13T05:10:38;10.93;;;6.85;;
32393;SDS011;18853;45.426;9.206;2023-03-13T05:13:06;12.75;;;6.78;;
32393;SDS011;18853;45.426;9.206;2023-03-13T05:15:32;10.20;;;6.57;;
32393;SDS011;18853;45.426;9.206;2023-03-13T05:17:57;10.68;;;6.28;;
32393;SDS011;18853;45.426;9.206;2023-03-13T05:20:23;12.23;;;6.45;;
32393;SDS011;18853;45.426;9.206;2023-03-13T05:22:49;14.88;;;6.60;;
32393;SDS011;18853;45.426;9.206;2023-03-13T05:25:14;10.98;;;6.30;;
32393;SDS011;18853;45.426;9.206;2023-03-13T05:27:40;11.25;;;6.63;;
32393;SDS011;18853;45.426;9.206;2023-03-13T05:30:06;19.85;;;6.57;;
32393;SDS011;18853;45.426;9.206;2023-03-13T05:32:32;12.07;;;7.30;;
32393;SDS011;18853;45.426;9.206;2023-03-13T05:34:58;12.32;;;6.85;;
32393;SDS011;18853;45.426;9.206;2023-03-13T05:37:23;14.20;;;6.68;;
32393;SDS011;18853;45.426;9.206;2023-03-13T05:39:49;12.95;;;6.70;;
32393;SDS011;18853;45.426;9.206;2023-03-13T05:42:14;10.00;;;6.60;;
32393;SDS011;18853;45.426;9.206;2023-03-13T05:44:40;14.65;;;7.57;;
32393;SDS011;18853;45.426;9.206;2023-03-13T05:47:06;11.95;;;6.72;;
32393;SDS011;18853;45.426;9.206;2023-03-13T05:49:31;11.80;;;6.93;;
32393;SDS011;18853;45.426;9.206;2023-03-13T05:51:57;18.15;;;7.35;;
32393;SDS011;18853;45.426;9.206;2023-03-13T05:54:22;11.80;;;7.20;;
32393;SDS011;18853;45.426;9.206;2023-03-13T05:56:48;10.88;;;7.18;;
32393;SDS011;18853;45.426;9.206;2023-03-13T05:59:14;11.55;;;6.13;;
32393;SDS011;18853;45.426;9.206;2023-03-13T06:01:40;10.90;;;7.00;;
32393;SDS011;18853;45.426;9.206;2023-03-13T06:04:06;11.85;;;6.50;;
32393;SDS011;18853;45.426;9.206;2023-03-13T06:06:31;12.95;;;6.82;;
32393;SDS011;18853;45.426;9.206;2023-03-13T06:08:57;13.25;;;7.95;;
32393;SDS011;18853;45.426;9.206;2023-03-13T06:11:23;12.82;;;8.00;;
32393;SDS011;18853;45.426;9.206;2023-03-13T06:13:50;11.45;;;7.30;;
32393;SDS011;18853;45.426;9.206;2023-03-13T06:16:16;11.10;;;7.55;;
32393;SDS011;18853;45.426;9.206;2023-03-13T06:18:42;15.10;;;8.10;;
32393;SDS011;18853;45.426;9.206;2023-03-13T06:21:08;12.32;;;8.35;;
32393;SDS011;18853;45.426;9.206;2023-03-13T06:23:33;11.25;;;7.68;;
32393;SDS011;18853;45.426;9.206;2023-03-13T06:25:59;13.82;;;8.52;;
32393;SDS011;18853;45.426;9.206;2023-03-13T06:28:25;13.88;;;7.93;;
32393;SDS011;18853;45.426;9.206;2023-03-13T06:30:51;14.02;;;8.88;;
32393;SDS011;18853;45.426;9.206;2023-03-13T06:33:17;14.65;;;8.40;;
32393;SDS011;18853;45.426;9.206;2023-03-13T06:35:43;12.73;;;8.10;;
32393;SDS011;18853;45.426;9.206;2023-03-13T06:38:09;13.10;;;8.45;;
32393;SDS011;18853;45.426;9.206;2023-03-13T06:40:35;14.23;;;9.00;;
32393;SDS011;18853;45.426;9.206;2023-03-13T06:43:01;14.23;;;9.05;;
32393;SDS011;18853;45.426;9.206;2023-03-13T06:45:27;14.00;;;9.10;;
32393;SDS011;18853;45.426;9.206;2023-03-13T06:47:52;15.13;;;9.43;;
32393;SDS011;18853;45.426;9.206;2023-03-13T06:50:18;14.25;;;9.00;;
32393;SDS011;18853;45.426;9.206;2023-03-13T06:52:45;14.52;;;8.95;;
32393;SDS011;18853;45.426;9.206;2023-03-13T06:55:12;14.15;;;8.75;;
32393;SDS011;18853;45.426;9.206;2023-03-13T06:57:37;13.57;;;8.68;;
32393;SDS011;18853;45.426;9.206;2023-03-13T07:00:03;14.82;;;8.85;;
32393;SDS011;18853;45.426;9.206;2023-03-13T07:02:30;14.00;;;8.82;;
32393;SDS011;18853;45.426;9.206;2023-03-13T07:04:56;16.42;;;8.88;;
32393;SDS011;18853;45.426;9.206;2023-03-13T07:07:22;15.35;;;8.60;;
32393;SDS011;18853;45.426;9.206;2023-03-13T07:09:47;16.13;;;8.15;;
32393;SDS011;18853;45.426;9.206;2023-03-13T07:12:13;15.15;;;8.77;;
32393;SDS011;18853;45.426;9.206;2023-03-13T07:14:38;14.70;;;8.43;;
32393;SDS011;18853;45.426;9.206;2023-03-13T07:17:04;14.10;;;7.93;;
32393;SDS011;18853;45.426;9.206;2023-03-13T07:19:30;16.38;;;8.30;;
32393;SDS011;18853;45.426;9.206;2023-03-13T07:21:55;22.38;;;8.68;;
32393;SDS011;18853;45.426;9.206;2023-03-13T07:24:21;14.75;;;8.00;;
32393;SDS011;18853;45.426;9.206;2023-03-13T07:26:47;14.48;;;7.60;;
32393;SDS011;18853;45.426;9.206;2023-03-13T07:29:12;14.07;;;8.45;;
32393;SDS011;18853;45.426;9.206;2023-03-13T07:31:38;45.00;;;27.50;;
32393;SDS011;18853;45.426;9.206;2023-03-13T07:34:04;39.45;;;24.63;;
32393;SDS011;18853;45.426;9.206;2023-03-13T07:36:29;45.38;;;29.83;;
32393;SDS011;18853;45.426;9.206;2023-03-13T07:38:55;32.55;;;18.98;;
32393;SDS011;18853;45.426;9.206;2023-03-13T07:41:21;26.80;;;17.95;;
32393;SDS011;18853;45.426;9.206;2023-03-13T07:43:47;12.43;;;8.18;;
32393;SDS011;18853;45.426;9.206;2023-03-13T07:46:14;19.75;;;12.40;;
32393;SDS011;18853;45.426;9.206;2023-03-13T07:48:44;18.10;;;12.00;;
32393;SDS011;18853;45.426;9.206;2023-03-13T07:51:12;20.40;;;10.32;;
32393;SDS011;18853;45.426;9.206;2023-03-13T07:53:43;12.52;;;6.40;;
32393;SDS011;18853;45.426;9.206;2023-03-13T07:56:12;14.23;;;6.78;;
32393;SDS011;18853;45.426;9.206;2023-03-13T07:58:39;12.55;;;6.63;;
32393;SDS011;18853;45.426;9.206;2023-03-13T08:03:45;12.32;;;6.45;;
32393;SDS011;18853;45.426;9.206;2023-03-13T08:06:15;10.02;;;5.82;;
32393;SDS011;18853;45.426;9.206;2023-03-13T08:08:42;10.63;;;5.80;;
32393;SDS011;18853;45.426;9.206;2023-03-13T08:11:09;12.13;;;6.15;;
32393;SDS011;18853;45.426;9.206;2023-03-13T08:13:36;16.20;;;7.10;;
32393;SDS011;18853;45.426;9.206;2023-03-13T08:16:04;13.07;;;5.90;;
32393;SDS011;18853;45.426;9.206;2023-03-13T08:18:31;12.07;;;5.53;;
32393;SDS011;18853;45.426;9.206;2023-03-13T08:21:02;10.77;;;6.03;;
32393;SDS011;18853;45.426;9.206;2023-03-13T08:23:30;14.00;;;6.72;;
32393;SDS011;18853;45.426;9.206;2023-03-13T08:26:00;11.48;;;6.53;;
32393;SDS011;18853;45.426;9.206;2023-03-13T08:28:36;11.32;;;6.10;;
32393;SDS011;18853;45.426;9.206;2023-03-13T08:31:16;10.50;;;6.10;;
32393;SDS011;18853;45.426;9.206;2023-03-13T08:33:43;11.18;;;6.20;;
32393;SDS011;18853;45.426;9.206;2023-03-13T08:36:20;11.35;;;5.75;;
32393;SDS011;18853;45.426;9.206;2023-03-13T08:38:48;10.73;;;5.20;;
32393;SDS011;18853;45.426;9.206;2023-03-13T08:41:15;9.35;;;5.30;;
32393;SDS011;18853;45.426;9.206;2023-03-13T08:43:45;13.68;;;5.57;;
32393;SDS011;18853;45.426;9.206;2023-03-13T08:46:11;13.35;;;6.00;;
32393;SDS011;18853;45.426;9.206;2023-03-13T08:48:37;9.48;;;5.30;;
32393;SDS011;18853;45.426;9.206;2023-03-13T08:53:33;11.85;;;6.65;;
32393;SDS011;18853;45.426;9.206;2023-03-13T08:56:00;11.32;;;5.18;;
32393;SDS011;18853;45.426;9.206;2023-03-13T08:58:26;11.30;;;5.78;;
32393;SDS011;18853;45.426;9.206;2023-03-13T09:00:52;9.45;;;5.35;;
32393;SDS011;18853;45.426;9.206;2023-03-13T09:03:18;9.93;;;4.47;;
32393;SDS011;18853;45.426;9.206;2023-03-13T09:05:44;14.98;;;6.95;;
32393;SDS011;18853;45.426;9.206;2023-03-13T09:08:12;9.15;;;5.10;;
32393;SDS011;18853;45.426;9.206;2023-03-13T09:10:39;8.88;;;4.80;;
32393;SDS011;18853;45.426;9.206;2023-03-13T09:13:05;11.38;;;5.13;;
32393;SDS011;18853;45.426;9.206;2023-03-13T09:15:30;11.57;;;6.85;;
32393;SDS011;18853;45.426;9.206;2023-03-13T09:17:56;11.93;;;5.40;;
32393;SDS011;18853;45.426;9.206;2023-03-13T09:20:21;12.18;;;5.63;;
32393;SDS011;18853;45.426;9.206;2023-03-13T09:22:47;11.88;;;6.32;;
32393;SDS011;18853;45.426;9.206;2023-03-13T09:25:13;47.45;;;32.60;;
32393;SDS011;18853;45.426;9.206;2023-03-13T09:27:39;15.20;;;7.30;;
32393;SDS011;18853;45.426;9.206;2023-03-13T09:30:05;12.95;;;7.28;;
32393;SDS011;18853;45.426;9.206;2023-03-13T09:32:32;12.98;;;6.72;;
32393;SDS011;18853;45.426;9.206;2023-03-13T09:34:57;16.38;;;6.80;;
32393;SDS011;18853;45.426;9.206;2023-03-13T09:37:23;14.13;;;7.25;;
32393;SDS011;18853;45.426;9.206;2023-03-13T09:39:49;13.65;;;7.30;;
32393;SDS011;18853;45.426;9.206;2023-03-13T09:42:16;10.65;;;6.70;;
32393;SDS011;18853;45.426;9.206;2023-03-13T09:45:27;15.95;;;7.22;;
32393;SDS011;18853;45.426;9.206;2023-03-13T09:50:26;14.85;;;8.70;;
32393;SDS011;18853;45.426;9.206;2023-03-13T09:52:56;12.93;;;8.10;;
32393;SDS011;18853;45.426;9.206;2023-03-13T09:55:29;15.20;;;8.80;;
32393;SDS011;18853;45.426;9.206;2023-03-13T10:00:38;13.90;;;8.38;;
32393;SDS011;18853;45.426;9.206;2023-03-13T10:05:56;14.38;;;7.85;;
32393;SDS011;18853;45.426;9.206;2023-03-13T10:08:26;15.50;;;8.00;;
32393;SDS011;18853;45.426;9.206;2023-03-13T10:13:45;11.88;;;8.15;;
32393;SDS011;18853;45.426;9.206;2023-03-13T10:16:24;13.98;;;7.18;;
32393;SDS011;18853;45.426;9.206;2023-03-13T10:18:55;18.50;;;7.50;;
32393;SDS011;18853;45.426;9.206;2023-03-13T10:21:23;18.30;;;7.85;;
32393;SDS011;18853;45.426;9.206;2023-03-13T10:24:10;14.35;;;7.78;;
32393;SDS011;18853;45.426;9.206;2023-03-13T10:26:42;15.95;;;8.43;;
32393;SDS011;18853;45.426;9.206;2023-03-13T10:29:21;15.13;;;7.90;;
32393;SDS011;18853;45.426;9.206;2023-03-13T10:31:54;14.98;;;8.57;;
32393;SDS011;18853;45.426;9.206;2023-03-13T10:34:25;13.48;;;8.45;;
32393;SDS011;18853;45.426;9.206;2023-03-13T10:36:57;13.07;;;8.68;;
32393;SDS011;18853;45.426;9.206;2023-03-13T10:39:25;14.70;;;8.50;;
32393;SDS011;18853;45.426;9.206;2023-03-13T10:42:07;14.70;;;8.10;;
32393;SDS011;18853;45.426;9.206;2023-03-13T10:44:35;12.55;;;8.25;;
32393;SDS011;18853;45.426;9.206;2023-03-13T10:47:01;11.98;;;7.93;;
32393;SDS011;18853;45.426;9.206;2023-03-13T10:49:29;19.98;;;8.55;;
32393;SDS011;18853;45.426;9.206;2023-03-13T10:52:04;14.45;;;9.23;;
32393;SDS011;18853;45.426;9.206;2023-03-13T10:54:33;14.38;;;8.68;;
32393;SDS011;18853;45.426;9.206;2023-03-13T10:57:08;15.15;;;7.95;;
32393;SDS011;18853;45.426;9.206;2023-03-13T10:59:38;15.15;;;8.63;;
32393;SDS011;18853;45.426;9.206;2023-03-13T11:02:12;16.08;;;8.50;;
32393;SDS011;18853;45.426;9.206;2023-03-13T11:04:51;15.25;;;8.73;;
32393;SDS011;18853;45.426;9.206;2023-03-13T11:07:32;13.73;;;7.93;;
32393;SDS011;18853;45.426;9.206;2023-03-13T11:12:47;17.58;;;9.25;;
32393;SDS011;18853;45.426;9.206;2023-03-13T11:15:28;13.02;;;8.68;;
32393;SDS011;18853;45.426;9.206;2023-03-13T11:17:59;17.10;;;8.73;;
32393;SDS011;18853;45.426;9.206;2023-03-13T11:20:32;15.50;;;9.23;;
32393;SDS011;18853;45.426;9.206;2023-03-13T11:28:48;18.20;;;8.57;;
32393;SDS011;18853;45.426;9.206;2023-03-13T11:36:42;16.90;;;8.23;;
32393;SDS011;18853;45.426;9.206;2023-03-13T11:44:57;13.73;;;8.10;;
32393;SDS011;18853;45.426;9.206;2023-03-13T12:01:22;13.75;;;7.22;;
32393;SDS011;18853;45.426;9.206;2023-03-13T12:14:38;11.57;;;6.70;;
32393;SDS011;18853;45.426;9.206;2023-03-13T12:17:17;12.07;;;5.78;;
32393;SDS011;18853;45.426;9.206;2023-03-13T12:23:03;10.10;;;5.55;;
32393;SDS011;18853;45.426;9.206;2023-03-13T12:25:17;12.00;;;6.53;;
32393;SDS011;18853;45.426;9.206;2023-03-13T12:27:51;9.98;;;5.85;;
32393;SDS011;18853;45.426;9.206;2023-03-13T12:30:24;13.00;;;6.20;;
32393;SDS011;18853;45.426;9.206;2023-03-13T12:33:15;12.23;;;5.97;;
32393;SDS011;18853;45.426;9.206;2023-03-13T12:36:02;10.70;;;6.40;;
32393;SDS011;18853;45.426;9.206;2023-03-13T12:38:33;13.43;;;5.53;;
32393;SDS011;18853;45.426;9.206;2023-03-13T12:43:51;14.23;;;6.53;;
32393;SDS011;18853;45.426;9.206;2023-03-13T12:46:26;13.93;;;5.38;;
32393;SDS011;18853;45.426;9.206;2023-03-13T12:49:03;15.95;;;6.38;;
32393;SDS011;18853;45.426;9.206;2023-03-13T12:59:47;12.02;;;6.65;;
32393;SDS011;18853;45.426;9.206;2023-03-13T13:02:21;14.88;;;7.20;;
32393;SDS011;18853;45.426;9.206;2023-03-13T13:04:50;18.02;;;7.07;;
32393;SDS011;18853;45.426;9.206;2023-03-13T13:07:31;13.93;;;7.75;;
32393;SDS011;18853;45.426;9.206;2023-03-13T13:12:34;11.17;;;6.77;;
32393;SDS011;18853;45.426;9.206;2023-03-13T13:20:41;12.63;;;7.47;;
32393;SDS011;18853;45.426;9.206;2023-03-13T13:36:57;13.68;;;8.05;;
32393;SDS011;18853;45.426;9.206;2023-03-13T13:39:39;13.93;;;8.32;;
32393;SDS011;18853;45.426;9.206;2023-03-13T13:44:59;13.88;;;8.55;;
32393;SDS011;18853;45.426;9.206;2023-03-13T13:47:46;12.15;;;7.13;;
32393;SDS011;18853;45.426;9.206;2023-03-13T13:50:16;12.02;;;6.90;;
32393;SDS011;18853;45.426;9.206;2023-03-13T13:52:50;15.93;;;7.35;;
32393;SDS011;18853;45.426;9.206;2023-03-13T14:03:27;11.77;;;7.17;;
32393;SDS011;18853;45.426;9.206;2023-03-13T14:05:58;14.15;;;7.38;;
32393;SDS011;18853;45.426;9.206;2023-03-13T14:08:28;12.30;;;7.22;;
32393;SDS011;18853;45.426;9.206;2023-03-13T14:13:30;19.25;;;7.22;;
32393;SDS011;18853;45.426;9.206;2023-03-13T14:15:55;11.63;;;8.00;;
32393;SDS011;18853;45.426;9.206;2023-03-13T14:18:25;16.45;;;9.35;;
32393;SDS011;18853;45.426;9.206;2023-03-13T14:20:56;10.98;;;7.82;;
32393;SDS011;18853;45.426;9.206;2023-03-13T14:23:39;15.35;;;7.68;;
32393;SDS011;18853;45.426;9.206;2023-03-13T14:28:44;12.88;;;7.55;;
32393;SDS011;18853;45.426;9.206;2023-03-13T14:31:22;12.38;;;7.15;;
32393;SDS011;18853;45.426;9.206;2023-03-13T14:34:03;13.50;;;8.25;;
32393;SDS011;18853;45.426;9.206;2023-03-13T14:39:15;12.77;;;7.40;;
32393;SDS011;18853;45.426;9.206;2023-03-13T14:44:38;14.80;;;8.40;;
32393;SDS011;18853;45.426;9.206;2023-03-13T14:47:10;12.85;;;7.93;;
32393;SDS011;18853;45.426;9.206;2023-03-13T14:49:46;12.63;;;7.30;;
32393;SDS011;18853;45.426;9.206;2023-03-13T14:54:54;14.88;;;7.93;;
32393;SDS011;18853;45.426;9.206;2023-03-13T14:57:21;12.30;;;7.82;;
32393;SDS011;18853;45.426;9.206;2023-03-13T14:59:49;11.73;;;8.05;;
32393;SDS011;18853;45.426;9.206;2023-03-13T15:04:47;12.85;;;7.82;;
32393;SDS011;18853;45.426;9.206;2023-03-13T15:07:28;14.20;;;8.05;;
32393;SDS011;18853;45.426;9.206;2023-03-13T15:10:32;17.08;;;7.65;;
32393;SDS011;18853;45.426;9.206;2023-03-13T15:15:51;16.02;;;8.20;;
32393;SDS011;18853;45.426;9.206;2023-03-13T15:18:18;15.70;;;7.85;;
32393;SDS011;18853;45.426;9.206;2023-03-13T15:20:52;14.68;;;8.77;;
32393;SDS011;18853;45.426;9.206;2023-03-13T15:23:20;14.52;;;8.63;;
32393;SDS011;18853;45.426;9.206;2023-03-13T15:25:46;22.30;;;8.60;;
32393;SDS011;18853;45.426;9.206;2023-03-13T15:28:16;14.13;;;7.88;;
32393;SDS011;18853;45.426;9.206;2023-03-13T15:30:44;15.43;;;8.38;;
32393;SDS011;18853;45.426;9.206;2023-03-13T15:33:15;15.80;;;8.85;;
32393;SDS011;18853;45.426;9.206;2023-03-13T15:35:45;14.82;;;8.05;;
32393;SDS011;18853;45.426;9.206;2023-03-13T15:38:15;16.85;;;9.00;;
32393;SDS011;18853;45.426;9.206;2023-03-13T15:40:46;14.85;;;8.18;;
32393;SDS011;18853;45.426;9.206;2023-03-13T15:43:12;17.73;;;8.70;;
32393;SDS011;18853;45.426;9.206;2023-03-13T15:45:39;12.63;;;8.30;;
32393;SDS011;18853;45.426;9.206;2023-03-13T15:48:17;15.05;;;8.45;;
32393;SDS011;18853;45.426;9.206;2023-03-13T15:53:18;16.65;;;8.77;;
32393;SDS011;18853;45.426;9.206;2023-03-13T15:55:44;15.63;;;8.38;;
32393;SDS011;18853;45.426;9.206;2023-03-13T15:58:11;14.23;;;8.30;;
32393;SDS011;18853;45.426;9.206;2023-03-13T16:00:37;15.30;;;8.40;;
32393;SDS011;18853;45.426;9.206;2023-03-13T16:03:03;14.55;;;7.72;;
32393;SDS011;18853;45.426;9.206;2023-03-13T16:05:29;18.27;;;8.55;;
32393;SDS011;18853;45.426;9.206;2023-03-13T16:07:55;14.00;;;8.70;;
32393;SDS011;18853;45.426;9.206;2023-03-13T16:10:22;16.35;;;8.50;;
32393;SDS011;18853;45.426;9.206;2023-03-13T16:12:50;15.45;;;9.10;;
32393;SDS011;18853;45.426;9.206;2023-03-13T16:15:16;16.75;;;9.02;;
32393;SDS011;18853;45.426;9.206;2023-03-13T16:17:41;21.67;;;10.38;;
32393;SDS011;18853;45.426;9.206;2023-03-13T16:20:11;20.65;;;10.93;;
32393;SDS011;18853;45.426;9.206;2023-03-13T16:22:44;20.58;;;10.75;;
32393;SDS011;18853;45.426;9.206;2023-03-13T16:25:10;17.50;;;11.52;;
32393;SDS011;18853;45.426;9.206;2023-03-13T16:27:37;17.40;;;11.07;;
32393;SDS011;18853;45.426;9.206;2023-03-13T16:30:05;14.45;;;10.75;;
32393;SDS011;18853;45.426;9.206;2023-03-13T16:32:42;21.80;;;9.38;;
32393;SDS011;18853;45.426;9.206;2023-03-13T16:35:08;15.27;;;9.75;;
32393;SDS011;18853;45.426;9.206;2023-03-13T16:37:34;17.30;;;9.85;;
32393;SDS011;18853;45.426;9.206;2023-03-13T16:39:59;17.48;;;9.88;;
32393;SDS011;18853;45.426;9.206;2023-03-13T16:42:26;16.10;;;9.68;;
32393;SDS011;18853;45.426;9.206;2023-03-13T16:44:51;14.98;;;8.90;;
32393;SDS011;18853;45.426;9.206;2023-03-13T16:49:52;15.35;;;8.60;;
32393;SDS011;18853;45.426;9.206;2023-03-13T16:52:18;16.77;;;9.05;;
32393;SDS011;18853;45.426;9.206;2023-03-13T16:54:45;17.17;;;9.25;;
32393;SDS011;18853;45.426;9.206;2023-03-13T16:57:12;17.70;;;9.20;;
32393;SDS011;18853;45.426;9.206;2023-03-13T16:59:42;17.67;;;9.50;;
32393;SDS011;18853;45.426;9.206;2023-03-13T17:02:14;20.20;;;10.07;;
32393;SDS011;18853;45.426;9.206;2023-03-13T17:09:46;18.27;;;10.10;;
32393;SDS011;18853;45.426;9.206;2023-03-13T17:12:11;16.67;;;9.82;;
32393;SDS011;18853;45.426;9.206;2023-03-13T17:14:37;16.30;;;10.07;;
32393;SDS011;18853;45.426;9.206;2023-03-13T17:17:03;24.65;;;10.13;;
32393;SDS011;18853;45.426;9.206;2023-03-13T17:19:29;15.55;;;8.90;;